Data for 08/13/2008

Time Sea-Level Adjusted Pressure Absolute Pressure Temperature Relative Humidity Dew Point   
(mb) (inHg) (mb) (inHg) (C) (F) (%) (C) (F)
00:05 1019 30.09 848 25.04 15.8 60.5 40 2.4 36.4
00:10 1019 30.09 848 25.04 15.4 59.7 41 2.4 36.3
00:15 1019 30.09 848 25.04 15.1 59.3 44 3 37.4
00:20 1019 30.09 848 25.04 14.3 57.7 47 3.1 37.7
00:25 1019 30.09 848 25.04 13.9 57.1 40 0.5 32.9
00:30 1019 30.09 848 25.04 15.2 59.3 37 0.6 33.2
00:35 1019 30.09 848 25.04 15.3 59.5 37 0.7 33.3
00:40 1019 30.09 848 25.04 15.1 59.1 37 0.4 32.8
00:45 1019 30.09 848 25.04 15.2 59.4 35 -0 32
00:50 1019 30.09 848 25.04 15.7 60.2 35 0.3 32.6
00:55 1019 30.09 848 25.04 15.5 60 37 1.2 34.1
01:00 1019 30.09 848 25.04 15.1 59.1 39 1.3 34.4
01:05 1019 30.09 848 25.04 14.9 58.9 37 0.3 32.6
01:10 1019 30.09 849 25.07 15.2 59.4 36 0.3 32.5
01:15 1019 30.09 849 25.07 15.1 59.2 35 -0 32
01:20 1019 30.09 849 25.07 15.1 59.2 37 0.7 33.2
01:25 1019 30.09 849 25.07 14.7 58.5 37 0.3 32.5
01:30 1019 30.09 848 25.04 14.6 58.3 37 0 32.1
01:35 1019 30.09 848 25.04 14.6 58.3 35 -0.5 31.1
01:40 1019 30.09 848 25.04 14.7 58.4 36 -0.2 31.7
01:45 1019 30.09 848 25.04 14.7 58.5 36 -0.3 31.4
01:50 1019 30.09 848 25.04 14.9 58.8 34 -0.7 30.8
01:55 1019 30.09 848 25.04 15.1 59.2 37 0.5 33
02:00 1019 30.09 848 25.04 14.5 58.1 40 1 33.8
02:05 1019 30.09 848 25.04 14.1 57.3 37 -0.3 31.4
02:10 1019 30.09 848 25.04 14.5 58.1 38 0.4 32.7
02:15 1019 30.09 848 25.04 14 57.2 39 0.5 33
02:20 1019 30.09 848 25.04 14 57.2 39 0.2 32.4
02:25 1019 30.09 848 25.04 14.1 57.4 39 0.3 32.6
02:30 1019 30.09 848 25.04 14.2 57.5 35 -0.8 30.6
02:35 1019 30.09 848 25.04 14.4 57.9 35 -0.8 30.6
02:40 1019 30.09 848 25.04 14.4 57.9 36 -0.5 31.2
02:45 1019 30.09 848 25.04 14.3 57.7 37 -0.2 31.6
02:50 1019 30.09 848 25.04 14.1 57.4 37 -0.3 31.4
02:55 1019 30.09 848 25.04 14 57.1 38 0.1 32.1
03:00 1019 30.09 848 25.04 13.7 56.6 39 -0 31.9
03:05 1019 30.09 848 25.04 13.6 56.5 38 -0.5 31.2
03:10 1019 30.09 848 25.04 13.7 56.7 39 -0 32
03:15 1019 30.09 848 25.04 13.6 56.5 40 0.3 32.6
03:20 1019 30.09 848 25.04 13.5 56.3 38 -0.6 31
03:25 1019 30.09 848 25.04 13.7 56.6 37 -0.6 30.9
03:30 1019 30.09 848 25.04 13.4 56.2 42 0.8 33.5
03:35 1019 30.09 848 25.04 13.1 55.5 40 -0.1 31.8
03:40 1019 30.09 848 25.04 13 55.4 39 -0.5 31.1
03:45 1019 30.09 848 25.04 13 55.5 40 -0.1 31.9
03:50 1019 30.09 848 25.04 12.9 55.1 40 -0.4 31.4
03:55 1019 30.09 848 25.04 13 55.5 39 -0.4 31.3
04:00 1019 30.09 848 25.04 13 55.3 40 -0.3 31.5
04:05 1019 30.09 848 25.04 13.1 55.5 39 -0.5 31
04:10 1019 30.09 848 25.04 13.3 55.9 37 -1.1 29.9
04:15 1019 30.09 848 25.04 13.2 55.7 42 0.5 32.8
04:20 1019 30.09 848 25.04 12.9 55.3 38 -1 30.2
04:25 1019 30.09 848 25.04 13.3 56 38 -0.6 31
04:30 1019 30.09 848 25.04 13.3 55.9 37 -0.9 30.4
04:35 1019 30.09 848 25.04 13.5 56.2 37 -0.7 30.7
04:40 1019 30.09 849 25.07 13.4 56.1 39 -0.3 31.5
04:45 1019 30.09 849 25.07 12.9 55.2 43 0.8 33.4
04:50 1019 30.09 849 25.07 12.5 54.4 41 -0.3 31.5
04:55 1019 30.09 849 25.07 12.7 54.8 44 0.8 33.5
05:00 1019 30.09 849 25.07 12.1 53.8 47 1.2 34.1
05:05 1019 30.09 849 25.07 11.8 53.2 49 1.6 34.8
05:10 1019 30.09 849 25.07 11.5 52.7 52 1.9 35.5
05:15 1019 30.09 849 25.07 11.2 52.2 52 1.9 35.4
05:20 1019 30.09 849 25.07 11.1 51.9 51 1.4 34.5
05:25 1019 30.09 849 25.07 10.9 51.6 52 1.4 34.5
05:30 1019 30.09 849 25.07 10.9 51.6 52 1.6 34.9
05:35 1019 30.09 849 25.07 10.8 51.5 52 1.4 34.6
05:40 1019 30.09 849 25.07 10.9 51.5 51 1.2 34.2
05:45 1019 30.09 849 25.07 10.9 51.7 53 1.7 35.1
05:50 1019 30.09 849 25.07 10.6 51.1 54 1.8 35.3
05:55 1019 30.09 849 25.07 10.3 50.6 53 1.3 34.4
06:00 1020 30.12 849 25.07 10.5 50.9 50 0.7 33.2
06:05 1020 30.12 849 25.07 10.9 51.6 49 0.8 33.4
06:10 1020 30.12 849 25.07 11.1 52 48 0.7 33.2
06:15 1020 30.12 849 25.07 11.2 52.1 48 0.5 33
06:20 1019 30.09 849 25.07 11.2 52.2 48 0.7 33.3
06:25 1020 30.12 849 25.07 11.1 52 49 0.8 33.4
06:30 1020 30.12 849 25.07 11 51.9 46 0 32
06:35 1020 30.12 849 25.07 11.3 52.3 46 0.3 32.5
06:40 1020 30.12 849 25.07 11.3 52.3 48 0.6 33.1
06:45 1020 30.12 849 25.07 11.2 52.1 46 0.1 32.1
06:50 1020 30.12 849 25.07 11.4 52.5 45 -0 31.9
06:55 1020 30.12 849 25.07 11.6 52.8 45 -0 32
07:00 1020 30.12 849 25.07 11.9 53.3 44 0.2 32.4
07:05 1020 30.12 849 25.07 11.9 53.4 45 0.4 32.7
07:10 1020 30.12 849 25.07 11.9 53.4 44 0.2 32.4
07:15 1020 30.12 849 25.07 11.9 53.4 44 0.1 32.1
07:20 1020 30.12 849 25.07 11.9 53.5 45 0.4 32.8
07:25 1020 30.12 849 25.07 12.2 54 44 0.4 32.7
07:30 1020 30.12 849 25.07 13 55.5 41 0.2 32.4
07:35 1020 30.12 849 25.07 13.5 56.3 41 0.5 32.9
07:40 1020 30.12 849 25.07 13.9 57 42 1.3 34.4
07:45 1020 30.12 849 25.07 13.9 57.1 41 1 33.9
07:50 1020 30.12 849 25.07 13.7 56.6 42 1.2 34.2
07:55 1020 30.12 850 25.1 14 57.2 41 1.1 34
08:00 1020 30.12 850 25.1 14.2 57.5 40 0.9 33.6
08:05 1021 30.15 850 25.1 14.5 58.2 41 1.5 34.7
08:10 1021 30.15 850 25.1 14.3 57.7 45 2.5 36.4
08:15 1021 30.15 850 25.1 14.4 57.9 43 2.1 35.8
08:20 1021 30.15 850 25.1 14.6 58.4 43 2.4 36.4
08:25 1021 30.15 850 25.1 14.6 58.3 44 2.7 36.8
08:30 1021 30.15 850 25.1 14.5 58.1 47 3.4 38.1
08:35 1021 30.15 850 25.1 14.4 57.8 49 3.8 38.8
08:40 1021 30.15 850 25.1 14.3 57.7 47 3.1 37.5
08:45 1021 30.15 850 25.1 14.5 58.1 47 3.3 37.9
08:50 1021 30.15 850 25.1 15 58.9 43 2.7 36.8
08:55 1021 30.15 850 25.1 15.3 59.6 43 2.8 37
09:00 1021 30.15 850 25.1 15.7 60.2 43 3.3 38
09:05 1021 30.15 850 25.1 16.1 61 43 3.6 38.5
09:10 1021 30.15 850 25.1 15.8 60.4 46 4.3 39.7
09:15 1021 30.15 850 25.1 15.6 60 46 4 39.3
09:20 1021 30.15 850 25.1 16.4 61.5 40 2.9 37.3
09:25 1021 30.15 850 25.1 17.8 64 33 1.3 34.3
09:30 1021 30.15 850 25.1 18.7 65.6 32 1.7 35.1
09:35 1021 30.15 850 25.1 18.7 65.7 31 1.6 34.9
09:40 1021 30.15 850 25.1 18.8 65.8 33 2.1 35.8
09:45 1021 30.15 850 25.1 18.9 66 33 2.4 36.3
09:50 1021 30.15 850 25.1 18.6 65.5 34 2.5 36.5
09:55 1021 30.15 850 25.1 18.6 65.4 33 2.3 36.1
10:00 1021 30.15 850 25.1 18.8 65.9 36 3.4 38.2
10:05 1021 30.15 850 25.1 19.2 66.5 33 2.8 37.1
10:10 1021 30.15 850 25.1 19.7 67.4 32 2.5 36.5
10:15 1021 30.15 850 25.1 20.5 68.9 32 3.2 37.8
10:20 1021 30.15 850 25.1 20.9 69.5 30 2.9 37.2
10:25 1021 30.15 850 25.1 21.1 69.9 29 2.6 36.6
10:30 1021 30.15 850 25.1 21.1 69.9 27 1.6 34.8
10:35 1021 30.15 850 25.1 21.6 70.9 29 2.8 37.1
10:40 1021 30.15 850 25.1 20.7 69.2 29 2 35.6
10:45 1021 30.15 850 25.1 20.9 69.6 29 2.2 36
10:50 1021 30.15 850 25.1 21.9 71.3 28 2.7 36.9
10:55 1021 30.15 850 25.1 20.9 69.6 30 2.8 37.1
11:00 1021 30.15 850 25.1 20.5 68.9 29 2.2 35.9
11:05 1021 30.15 851 25.13 21.2 70.2 27 1.7 35
11:10 1021 30.15 851 25.13 21.4 70.4 28 2.1 35.8
11:15 1021 30.15 851 25.13 22 71.7 26 1.7 35.1
11:20 1021 30.15 851 25.13 22.7 72.9 25 1.7 35.1
11:25 1021 30.15 851 25.13 23.1 73.7 25 2.2 35.9
11:30 1021 30.15 851 25.13 23.4 74.2 24 2.2 35.9
11:35 1021 30.15 851 25.13 23.5 74.4 25 2.7 36.9
11:40 1021 30.15 851 25.13 23.7 74.7 27 3.6 38.6
11:45 1021 30.15 851 25.13 23.1 73.6 26 2.7 36.8
11:50 1022 30.18 851 25.13 23.3 74 27 3.3 38
11:55 1022 30.18 851 25.13 23.7 74.7 26 3.2 37.8
12:00 1022 30.18 851 25.13 23.6 74.5 27 3.6 38.4
12:05 1021 30.15 851 25.13 23.7 74.6 26 3.1 37.5
12:10 1021 30.15 851 25.13 23.8 74.8 26 3.4 38.2
12:15 1021 30.15 851 25.13 23.8 74.9 26 3.5 38.3
12:20 1021 30.15 851 25.13 23.8 74.9 26 3.2 37.8
12:25 1021 30.15 851 25.13 24.6 76.2 25 3.3 37.9
12:30 1021 30.15 851 25.13 24.7 76.5 24 3.3 37.9
12:35 1021 30.15 851 25.13 24.6 76.2 23 2.3 36.1
12:40 1021 30.15 851 25.13 24.7 76.4 22 1.8 35.2
12:45 1021 30.15 851 25.13 24.5 76 23 2.2 36
12:50 1021 30.15 850 25.1 24.1 75.3 23 1.7 35.1
12:55 1021 30.15 850 25.1 24.7 76.4 22 1.8 35.3
13:00 1021 30.15 850 25.1 25.1 77.1 22 2.1 35.8
13:05 1021 30.15 850 25.1 25.2 77.4 22 2.4 36.2
13:10 1021 30.15 850 25.1 25.1 77.3 22 2 35.5
13:15 1021 30.15 850 25.1 24.7 76.4 23 2.4 36.3
13:20 1021 30.15 850 25.1 24 75.2 23 1.8 35.3
13:25 1021 30.15 850 25.1 24.1 75.4 23 1.9 35.4
13:30 1021 30.15 850 25.1 24.4 75.9 22 1.6 34.8
13:35 1021 30.15 850 25.1 25.1 77.2 23 2.8 37.1
13:40 1021 30.15 850 25.1 25.6 78.1 21 2.1 35.8
13:45 1021 30.15 850 25.1 25.2 77.3 22 2 35.6
13:50 1021 30.15 850 25.1 26.1 79 18 0.1 32.2
13:55 1021 30.15 850 25.1 25.3 77.6 20 0.8 33.4
14:00 1021 30.15 850 25.1 24.7 76.5 20 0.7 33.3
14:05 1021 30.15 850 25.1 24.6 76.3 20 0.6 33
14:10 1021 30.15 850 25.1 24.8 76.7 20 0.5 33
14:15 1021 30.15 850 25.1 24.5 76.2 20 0.7 33.2
14:20 1021 30.15 850 25.1 25 77 19 0.3 32.5
14:25 1021 30.15 850 25.1 24.9 76.9 20 0.4 32.6
14:30 1021 30.15 850 25.1 25.1 77.2 19 -0 31.9
14:35 1021 30.15 850 25.1 25.2 77.3 19 0.4 32.8
14:40 1021 30.15 850 25.1 25.1 77.1 18 -0.4 31.3
14:45 1021 30.15 850 25.1 25.2 77.4 19 0.3 32.6
14:50 1021 30.15 850 25.1 24.6 76.3 20 0.3 32.5
14:55 1021 30.15 850 25.1 24.1 75.4 20 -0 32
15:00 1021 30.15 850 25.1 23.6 74.4 21 0.1 32.2
15:05 1021 30.15 850 25.1 23.7 74.6 20 -0.3 31.4
15:10 1021 30.15 850 25.1 23.7 74.6 21 0.1 32.2
15:15 1021 30.15 850 25.1 24.2 75.6 21 0.5 32.8
15:20 1020 30.12 850 25.1 24.3 75.7 20 0 32
15:25 1020 30.12 850 25.1 24.6 76.4 20 0.2 32.3
15:30 1020 30.12 850 25.1 24.8 76.7 20 0.3 32.6
15:35 1020 30.12 850 25.1 25.2 77.4 19 -0 31.9
15:40 1020 30.12 850 25.1 25.5 77.9 18 -0.3 31.5
15:45 1020 30.12 850 25.1 25.7 78.3 19 0.3 32.6
15:50 1020 30.12 849 25.07 26.3 79.3 18 0.4 32.7
15:55 1020 30.12 849 25.07 26.2 79.1 19 1 33.9
16:00 1020 30.12 849 25.07 25.5 77.9 18 -0.5 31.1
16:05 1020 30.12 849 25.07 25.3 77.5 20 0.7 33.3
16:10 1020 30.12 849 25.07 25.1 77.2 19 0.1 32.2
16:15 1020 30.12 849 25.07 25.2 77.3 20 1.1 34
16:20 1020 30.12 849 25.07 24.8 76.7 20 0.7 33.3
16:25 1020 30.12 849 25.07 24.5 76 19 -0.3 31.4
16:30 1020 30.12 849 25.07 24.7 76.4 20 0.1 32.2
16:35 1020 30.12 849 25.07 24.8 76.6 19 0.2 32.4
16:40 1020 30.12 849 25.07 24.3 75.8 20 0.3 32.5
16:45 1020 30.12 849 25.07 23.9 75 21 0.2 32.3
16:50 1020 30.12 849 25.07 24.8 76.6 21 0.9 33.6
16:55 1020 30.12 849 25.07 25.4 77.7 19 0.6 33.2
17:00 1020 30.12 849 25.07 25.4 77.8 20 1.4 34.5
17:05 1020 30.12 849 25.07 25.7 78.2 21 1.8 35.2
17:10 1020 30.12 849 25.07 26.1 78.9 18 0.1 32.2
17:15 1020 30.12 849 25.07 25.5 77.9 19 0.2 32.4
17:20 1020 30.12 849 25.07 24.9 76.7 18 -0.8 30.5
17:25 1020 30.12 849 25.07 24.9 76.8 18 -0.5 31.1
17:30 1020 30.12 849 25.07 25.3 77.5 19 0 32
17:35 1020 30.12 850 25.1 25.9 78.7 18 0.1 32.1
17:40 1020 30.12 850 25.1 26 78.8 17 -0.5 31
17:45 1020 30.12 850 25.1 25.5 77.9 18 -0.6 30.9
17:50 1020 30.12 850 25.1 25.4 77.7 19 0.6 33.1
17:55 1020 30.12 850 25.1 25.2 77.3 18 -0.4 31.4
18:00 1020 30.12 850 25.1 25.1 77.2 19 0.1 32.1
18:05 1020 30.12 850 25.1 24.8 76.7 19 -0.4 31.2
18:10 1020 30.12 850 25.1 25.2 77.4 18 -0.8 30.6
18:15 1020 30.12 850 25.1 25.3 77.5 17 -1.1 30
18:20 1020 30.12 850 25.1 25.1 77.2 18 -0.6 31
18:25 1020 30.12 850 25.1 25 77.1 19 0.3 32.5
18:30 1020 30.12 850 25.1 24.7 76.4 20 0.3 32.5
18:35 1020 30.12 850 25.1 24.5 76.1 19 -0.2 31.6
18:40 1020 30.12 850 25.1 24.3 75.7 20 0.2 32.4
18:45 1020 30.12 850 25.1 23.7 74.7 20 -0.2 31.6
18:50 1020 30.12 850 25.1 23.6 74.4 19 -0.9 30.4
18:55 1020 30.12 850 25.1 23.6 74.5 21 -0.1 31.9
19:00 1020 30.12 850 25.1 23.6 74.5 20 -0.7 30.8
19:05 1020 30.12 850 25.1 23.5 74.3 22 0.7 33.3
19:10 1020 30.12 850 25.1 23.5 74.3 25 2.8 37
19:15 1020 30.12 850 25.1 23.3 74 26 3.2 37.8
19:20 1020 30.12 850 25.1 22.9 73.2 29 4.4 39.9
19:25 1020 30.12 850 25.1 22.7 72.9 29 4.2 39.5
19:30 1020 30.12 850 25.1 22.6 72.6 33 5.7 42.2
19:35 1020 30.12 850 25.1 22.4 72.3 32 5.3 41.5
19:40 1020 30.12 850 25.1 22.3 72.2 33 5.6 42
19:45 1020 30.12 850 25.1 22.3 72.2 37 7 44.6
19:50 1020 30.12 850 25.1 22 71.6 39 7.4 45.3
19:55 1021 30.15 850 25.1 21.7 71.1 37 6.4 43.6
20:00 1021 30.15 850 25.1 21.6 70.8 40 7.4 45.4
20:05 1021 30.15 850 25.1 21.2 70.2 37 6.2 43.2
20:10 1021 30.15 850 25.1 20.8 69.4 39 6.5 43.7
20:15 1021 30.15 850 25.1 20.5 68.9 42 7.3 45.2
20:20 1021 30.15 850 25.1 20.2 68.3 38 5.6 42.1
20:25 1021 30.15 850 25.1 20 68 40 6.1 43
20:30 1021 30.15 850 25.1 19.8 67.7 41 6.4 43.5
20:35 1021 30.15 850 25.1 19.6 67.3 41 6.3 43.3
20:40 1021 30.15 850 25.1 19.4 66.9 42 6.4 43.5
20:45 1021 30.15 850 25.1 19.3 66.7 39 5.1 41.1
20:50 1021 30.15 850 25.1 19.1 66.4 41 5.8 42.5
20:55 1021 30.15 850 25.1 18.8 65.9 42 5.7 42.2
21:00 1021 30.15 850 25.1 18.6 65.5 41 5.3 41.5
21:05 1021 30.15 850 25.1 18.5 65.3 41 5.1 41.2
21:10 1021 30.15 850 25.1 18.4 65.1 41 5.2 41.3
21:15 1021 30.15 850 25.1 18.1 64.6 43 5.4 41.8
21:20 1021 30.15 850 25.1 17.9 64.2 42 5.1 41.1
21:25 1021 30.15 850 25.1 17.7 63.8 44 5.4 41.8
21:30 1021 30.15 850 25.1 17.4 63.3 43 4.9 40.8
21:35 1021 30.15 850 25.1 17.3 63.2 40 3.9 39
21:40 1021 30.15 850 25.1 17.6 63.6 39 3.5 38.2
21:45 1021 30.15 850 25.1 17.6 63.6 40 4.1 39.4
21:50 1021 30.15 850 25.1 17.3 63.1 42 4.3 39.7
21:55 1021 30.15 850 25.1 17.1 62.9 40 3.4 38.1
22:00 1021 30.15 850 25.1 17.2 63 39 3.3 37.9
22:05 1021 30.15 850 25.1 17.2 63 39 3.2 37.8
22:10 1021 30.15 850 25.1 17 62.6 39 3.2 37.7
22:15 1021 30.15 850 25.1 16.8 62.2 39 3 37.4
22:20 1021 30.15 850 25.1 16.5 61.7 41 3.4 38.1
22:25 1021 30.15 850 25.1 16.5 61.8 40 2.9 37.2
22:30 1021 30.15 850 25.1 16.4 61.6 40 2.8 37
22:35 1021 30.15 850 25.1 16.4 61.5 40 3 37.3
22:40 1021 30.15 850 25.1 16.2 61.2 41 3 37.4
22:45 1021 30.15 850 25.1 16.2 61.2 39 2.3 36.2
22:50 1021 30.15 850 25.1 16.4 61.4 39 2.6 36.7
22:55 1021 30.15 850 25.1 16.4 61.6 40 2.7 36.9
23:00 1021 30.15 850 25.1 16.3 61.4 39 2.4 36.3
23:05 1021 30.15 850 25.1 16.4 61.4 38 2 35.6
23:10 1021 30.15 851 25.13 16.6 61.8 38 2.2 36
23:15 1021 30.15 851 25.13 16.6 61.9 39 2.9 37.1
23:20 1021 30.15 851 25.13 16.7 62 38 2.3 36.2
23:25 1021 30.15 851 25.13 16.4 61.4 40 2.9 37.2
23:30 1021 30.15 851 25.13 16.1 60.9 43 3.7 38.6
23:35 1021 30.15 851 25.13 16 60.8 43 3.4 38.1
23:40 1021 30.15 851 25.13 16.2 61.2 39 2.4 36.3
23:45 1022 30.18 851 25.13 16.5 61.7 37 2.1 35.7
23:50 1022 30.18 851 25.13 16.8 62.3 36 1.8 35.3
23:55 1022 30.18 851 25.13 16.9 62.4 36 1.8 35.2
24:00 1022 30.18 851 25.13 17 62.6 37 2.1 35.9